sensor_id;sensor_type;location;lat;lon;timestamp;P1;durP1;ratioP1;P2;durP2;ratioP2
76065;SDS011;64763;48.928;8.474;2023-07-28T00:00:49;3.67;;;2.40;;
76065;SDS011;64763;48.928;8.474;2023-07-28T00:03:14;4.90;;;2.50;;
76065;SDS011;64763;48.928;8.474;2023-07-28T00:05:40;5.63;;;2.63;;
76065;SDS011;64763;48.928;8.474;2023-07-28T00:08:05;5.07;;;3.23;;
76065;SDS011;64763;48.928;8.474;2023-07-28T00:10:30;4.30;;;2.70;;
76065;SDS011;64763;48.928;8.474;2023-07-28T00:12:56;5.60;;;2.72;;
76065;SDS011;64763;48.928;8.474;2023-07-28T00:15:21;3.88;;;2.60;;
76065;SDS011;64763;48.928;8.474;2023-07-28T00:17:46;4.83;;;2.70;;
76065;SDS011;64763;48.928;8.474;2023-07-28T00:20:11;6.60;;;2.77;;
76065;SDS011;64763;48.928;8.474;2023-07-28T00:22:36;6.47;;;3.70;;
76065;SDS011;64763;48.928;8.474;2023-07-28T00:25:02;4.93;;;3.00;;
76065;SDS011;64763;48.928;8.474;2023-07-28T00:27:27;4.72;;;2.60;;
76065;SDS011;64763;48.928;8.474;2023-07-28T00:29:52;3.93;;;2.83;;
76065;SDS011;64763;48.928;8.474;2023-07-28T00:32:18;4.37;;;2.70;;
76065;SDS011;64763;48.928;8.474;2023-07-28T00:34:43;6.97;;;2.97;;
76065;SDS011;64763;48.928;8.474;2023-07-28T00:37:08;6.93;;;2.90;;
76065;SDS011;64763;48.928;8.474;2023-07-28T00:39:33;5.50;;;3.53;;
76065;SDS011;64763;48.928;8.474;2023-07-28T00:41:58;4.60;;;2.67;;
76065;SDS011;64763;48.928;8.474;2023-07-28T00:44:24;5.77;;;2.93;;
76065;SDS011;64763;48.928;8.474;2023-07-28T00:46:49;4.70;;;2.97;;
76065;SDS011;64763;48.928;8.474;2023-07-28T00:49:14;4.83;;;2.73;;
76065;SDS011;64763;48.928;8.474;2023-07-28T00:51:39;4.73;;;3.13;;
76065;SDS011;64763;48.928;8.474;2023-07-28T00:54:05;4.87;;;3.17;;
76065;SDS011;64763;48.928;8.474;2023-07-28T00:56:30;4.90;;;2.90;;
76065;SDS011;64763;48.928;8.474;2023-07-28T00:58:55;5.38;;;2.65;;
76065;SDS011;64763;48.928;8.474;2023-07-28T01:01:21;4.95;;;2.80;;
76065;SDS011;64763;48.928;8.474;2023-07-28T01:03:46;5.22;;;3.08;;
76065;SDS011;64763;48.928;8.474;2023-07-28T01:06:18;5.13;;;3.07;;
76065;SDS011;64763;48.928;8.474;2023-07-28T01:08:53;4.60;;;2.90;;
76065;SDS011;64763;48.928;8.474;2023-07-28T01:11:21;7.50;;;2.83;;
76065;SDS011;64763;48.928;8.474;2023-07-28T01:13:46;5.15;;;3.05;;
76065;SDS011;64763;48.928;8.474;2023-07-28T01:16:11;5.37;;;3.40;;
76065;SDS011;64763;48.928;8.474;2023-07-28T01:18:36;4.78;;;3.00;;
76065;SDS011;64763;48.928;8.474;2023-07-28T01:21:03;6.97;;;2.95;;
76065;SDS011;64763;48.928;8.474;2023-07-28T01:23:52;4.60;;;3.08;;
76065;SDS011;64763;48.928;8.474;2023-07-28T01:26:34;4.40;;;2.53;;
76065;SDS011;64763;48.928;8.474;2023-07-28T01:29:00;4.13;;;2.63;;
76065;SDS011;64763;48.928;8.474;2023-07-28T01:31:25;7.13;;;2.92;;
76065;SDS011;64763;48.928;8.474;2023-07-28T01:33:50;5.82;;;2.80;;
76065;SDS011;64763;48.928;8.474;2023-07-28T01:36:16;4.53;;;3.00;;
76065;SDS011;64763;48.928;8.474;2023-07-28T01:38:41;6.97;;;3.07;;
76065;SDS011;64763;48.928;8.474;2023-07-28T01:41:06;6.80;;;3.13;;
76065;SDS011;64763;48.928;8.474;2023-07-28T01:43:31;5.57;;;3.00;;
76065;SDS011;64763;48.928;8.474;2023-07-28T01:45:56;4.73;;;2.93;;
76065;SDS011;64763;48.928;8.474;2023-07-28T01:48:22;4.93;;;2.60;;
76065;SDS011;64763;48.928;8.474;2023-07-28T01:50:47;6.40;;;2.90;;
76065;SDS011;64763;48.928;8.474;2023-07-28T01:53:12;5.87;;;3.40;;
76065;SDS011;64763;48.928;8.474;2023-07-28T01:55:38;6.97;;;3.20;;
76065;SDS011;64763;48.928;8.474;2023-07-28T01:58:03;5.90;;;2.70;;
76065;SDS011;64763;48.928;8.474;2023-07-28T02:00:28;4.70;;;3.00;;
76065;SDS011;64763;48.928;8.474;2023-07-28T02:02:53;4.03;;;2.83;;
76065;SDS011;64763;48.928;8.474;2023-07-28T02:05:19;5.10;;;2.92;;
76065;SDS011;64763;48.928;8.474;2023-07-28T02:07:44;4.55;;;3.00;;
76065;SDS011;64763;48.928;8.474;2023-07-28T02:10:10;4.22;;;2.92;;
76065;SDS011;64763;48.928;8.474;2023-07-28T02:12:35;5.53;;;2.95;;
76065;SDS011;64763;48.928;8.474;2023-07-28T02:15:01;4.00;;;2.97;;
76065;SDS011;64763;48.928;8.474;2023-07-28T02:17:26;3.90;;;2.90;;
76065;SDS011;64763;48.928;8.474;2023-07-28T02:19:51;4.70;;;2.87;;
76065;SDS011;64763;48.928;8.474;2023-07-28T02:22:16;4.67;;;2.83;;
76065;SDS011;64763;48.928;8.474;2023-07-28T02:24:41;5.63;;;2.70;;
76065;SDS011;64763;48.928;8.474;2023-07-28T02:27:07;5.17;;;3.00;;
76065;SDS011;64763;48.928;8.474;2023-07-28T02:29:32;4.10;;;2.90;;
76065;SDS011;64763;48.928;8.474;2023-07-28T02:31:57;4.97;;;2.97;;
76065;SDS011;64763;48.928;8.474;2023-07-28T02:34:22;4.17;;;2.90;;
76065;SDS011;64763;48.928;8.474;2023-07-28T02:36:47;6.00;;;2.97;;
76065;SDS011;64763;48.928;8.474;2023-07-28T02:39:13;4.20;;;3.00;;
76065;SDS011;64763;48.928;8.474;2023-07-28T02:41:38;4.93;;;3.10;;
76065;SDS011;64763;48.928;8.474;2023-07-28T02:44:03;5.20;;;2.93;;
76065;SDS011;64763;48.928;8.474;2023-07-28T02:46:28;5.15;;;2.90;;
76065;SDS011;64763;48.928;8.474;2023-07-28T02:48:53;5.57;;;3.30;;
76065;SDS011;64763;48.928;8.474;2023-07-28T02:51:19;5.20;;;3.00;;
76065;SDS011;64763;48.928;8.474;2023-07-28T02:53:44;5.00;;;3.10;;
76065;SDS011;64763;48.928;8.474;2023-07-28T02:56:09;4.57;;;2.97;;
76065;SDS011;64763;48.928;8.474;2023-07-28T02:58:34;5.23;;;2.87;;
76065;SDS011;64763;48.928;8.474;2023-07-28T03:01:00;5.95;;;3.20;;
76065;SDS011;64763;48.928;8.474;2023-07-28T03:03:25;4.50;;;3.20;;
76065;SDS011;64763;48.928;8.474;2023-07-28T03:05:53;5.10;;;3.17;;
76065;SDS011;64763;48.928;8.474;2023-07-28T03:08:21;3.70;;;2.70;;
76065;SDS011;64763;48.928;8.474;2023-07-28T03:10:46;4.53;;;2.93;;
76065;SDS011;64763;48.928;8.474;2023-07-28T03:13:11;6.23;;;3.17;;
76065;SDS011;64763;48.928;8.474;2023-07-28T03:15:37;4.57;;;3.13;;
76065;SDS011;64763;48.928;8.474;2023-07-28T03:18:02;4.47;;;2.93;;
76065;SDS011;64763;48.928;8.474;2023-07-28T03:20:27;4.38;;;2.90;;
76065;SDS011;64763;48.928;8.474;2023-07-28T03:22:52;4.47;;;3.07;;
76065;SDS011;64763;48.928;8.474;2023-07-28T03:25:19;5.88;;;2.90;;
76065;SDS011;64763;48.928;8.474;2023-07-28T03:27:45;3.77;;;2.47;;
76065;SDS011;64763;48.928;8.474;2023-07-28T03:30:10;4.70;;;2.93;;
76065;SDS011;64763;48.928;8.474;2023-07-28T03:32:35;7.22;;;3.97;;
76065;SDS011;64763;48.928;8.474;2023-07-28T03:35:01;5.78;;;3.38;;
76065;SDS011;64763;48.928;8.474;2023-07-28T03:37:26;4.47;;;3.07;;
76065;SDS011;64763;48.928;8.474;2023-07-28T03:39:51;4.63;;;3.20;;
76065;SDS011;64763;48.928;8.474;2023-07-28T03:42:16;4.73;;;3.23;;
76065;SDS011;64763;48.928;8.474;2023-07-28T03:44:41;6.43;;;3.17;;
76065;SDS011;64763;48.928;8.474;2023-07-28T03:47:07;4.97;;;3.07;;
76065;SDS011;64763;48.928;8.474;2023-07-28T03:49:32;4.78;;;3.15;;
76065;SDS011;64763;48.928;8.474;2023-07-28T03:51:57;8.07;;;3.40;;
76065;SDS011;64763;48.928;8.474;2023-07-28T03:54:23;4.57;;;3.35;;
76065;SDS011;64763;48.928;8.474;2023-07-28T03:56:48;6.70;;;3.17;;
76065;SDS011;64763;48.928;8.474;2023-07-28T03:59:13;5.40;;;3.13;;
76065;SDS011;64763;48.928;8.474;2023-07-28T04:01:38;3.60;;;2.50;;
76065;SDS011;64763;48.928;8.474;2023-07-28T04:04:03;3.93;;;2.50;;
76065;SDS011;64763;48.928;8.474;2023-07-28T04:06:46;4.00;;;2.45;;
76065;SDS011;64763;48.928;8.474;2023-07-28T04:09:13;4.22;;;2.88;;
76065;SDS011;64763;48.928;8.474;2023-07-28T04:11:38;5.88;;;3.15;;
76065;SDS011;64763;48.928;8.474;2023-07-28T04:14:03;5.70;;;3.20;;
76065;SDS011;64763;48.928;8.474;2023-07-28T04:16:29;4.78;;;3.10;;
76065;SDS011;64763;48.928;8.474;2023-07-28T04:18:54;5.00;;;2.80;;
76065;SDS011;64763;48.928;8.474;2023-07-28T04:21:19;5.70;;;3.03;;
76065;SDS011;64763;48.928;8.474;2023-07-28T04:23:45;4.88;;;3.38;;
76065;SDS011;64763;48.928;8.474;2023-07-28T04:26:10;5.13;;;3.08;;
76065;SDS011;64763;48.928;8.474;2023-07-28T04:28:35;4.77;;;2.77;;
76065;SDS011;64763;48.928;8.474;2023-07-28T04:31:01;5.17;;;3.23;;
76065;SDS011;64763;48.928;8.474;2023-07-28T04:33:26;4.53;;;3.13;;
76065;SDS011;64763;48.928;8.474;2023-07-28T04:35:51;4.80;;;3.07;;
76065;SDS011;64763;48.928;8.474;2023-07-28T04:38:16;5.50;;;3.40;;
76065;SDS011;64763;48.928;8.474;2023-07-28T04:40:43;4.20;;;3.25;;
76065;SDS011;64763;48.928;8.474;2023-07-28T04:43:08;6.00;;;3.13;;
76065;SDS011;64763;48.928;8.474;2023-07-28T04:45:33;5.13;;;3.50;;
76065;SDS011;64763;48.928;8.474;2023-07-28T04:47:58;4.50;;;3.17;;
76065;SDS011;64763;48.928;8.474;2023-07-28T04:50:24;5.53;;;3.50;;
76065;SDS011;64763;48.928;8.474;2023-07-28T04:52:49;5.57;;;3.57;;
76065;SDS011;64763;48.928;8.474;2023-07-28T04:55:14;5.27;;;3.80;;
76065;SDS011;64763;48.928;8.474;2023-07-28T04:57:40;6.13;;;3.70;;
76065;SDS011;64763;48.928;8.474;2023-07-28T05:00:06;4.75;;;3.45;;
76065;SDS011;64763;48.928;8.474;2023-07-28T05:02:31;6.40;;;4.10;;
76065;SDS011;64763;48.928;8.474;2023-07-28T05:04:56;5.67;;;3.70;;
76065;SDS011;64763;48.928;8.474;2023-07-28T05:07:21;6.03;;;3.50;;
76065;SDS011;64763;48.928;8.474;2023-07-28T05:09:46;5.33;;;3.47;;
76065;SDS011;64763;48.928;8.474;2023-07-28T05:12:12;5.70;;;3.50;;
76065;SDS011;64763;48.928;8.474;2023-07-28T05:14:37;6.43;;;3.87;;
76065;SDS011;64763;48.928;8.474;2023-07-28T05:17:02;5.30;;;3.40;;
76065;SDS011;64763;48.928;8.474;2023-07-28T05:19:27;5.82;;;3.78;;
76065;SDS011;64763;48.928;8.474;2023-07-28T05:21:52;7.20;;;4.47;;
76065;SDS011;64763;48.928;8.474;2023-07-28T05:24:18;5.90;;;3.43;;
76065;SDS011;64763;48.928;8.474;2023-07-28T05:26:43;6.57;;;3.53;;
76065;SDS011;64763;48.928;8.474;2023-07-28T05:29:08;6.60;;;3.57;;
76065;SDS011;64763;48.928;8.474;2023-07-28T05:31:33;4.67;;;3.20;;
76065;SDS011;64763;48.928;8.474;2023-07-28T05:34:01;4.72;;;3.40;;
76065;SDS011;64763;48.928;8.474;2023-07-28T05:36:26;5.63;;;3.28;;
76065;SDS011;64763;48.928;8.474;2023-07-28T05:38:53;4.53;;;3.30;;
76065;SDS011;64763;48.928;8.474;2023-07-28T05:41:20;5.30;;;3.58;;
76065;SDS011;64763;48.928;8.474;2023-07-28T05:43:45;5.28;;;3.40;;
76065;SDS011;64763;48.928;8.474;2023-07-28T05:46:11;5.95;;;3.35;;
76065;SDS011;64763;48.928;8.474;2023-07-28T05:48:36;6.35;;;3.42;;
76065;SDS011;64763;48.928;8.474;2023-07-28T05:51:01;4.60;;;3.00;;
76065;SDS011;64763;48.928;8.474;2023-07-28T05:53:27;3.83;;;2.88;;
76065;SDS011;64763;48.928;8.474;2023-07-28T05:55:52;4.37;;;2.90;;
76065;SDS011;64763;48.928;8.474;2023-07-28T05:58:17;3.70;;;2.60;;
76065;SDS011;64763;48.928;8.474;2023-07-28T06:00:43;3.78;;;2.42;;
76065;SDS011;64763;48.928;8.474;2023-07-28T06:03:09;5.07;;;2.30;;
76065;SDS011;64763;48.928;8.474;2023-07-28T06:05:35;4.18;;;2.83;;
76065;SDS011;64763;48.928;8.474;2023-07-28T06:08:00;3.87;;;2.60;;
76065;SDS011;64763;48.928;8.474;2023-07-28T06:10:25;3.63;;;2.30;;
76065;SDS011;64763;48.928;8.474;2023-07-28T06:12:50;3.33;;;2.10;;
76065;SDS011;64763;48.928;8.474;2023-07-28T06:15:16;3.23;;;2.00;;
76065;SDS011;64763;48.928;8.474;2023-07-28T06:17:41;2.70;;;1.70;;
76065;SDS011;64763;48.928;8.474;2023-07-28T06:20:06;2.53;;;1.80;;
76065;SDS011;64763;48.928;8.474;2023-07-28T06:22:32;4.70;;;2.10;;
76065;SDS011;64763;48.928;8.474;2023-07-28T06:24:57;3.17;;;2.10;;
76065;SDS011;64763;48.928;8.474;2023-07-28T06:27:22;3.70;;;2.27;;
76065;SDS011;64763;48.928;8.474;2023-07-28T06:29:47;3.17;;;2.03;;
76065;SDS011;64763;48.928;8.474;2023-07-28T06:32:12;4.33;;;2.30;;
76065;SDS011;64763;48.928;8.474;2023-07-28T06:34:38;3.17;;;2.00;;
76065;SDS011;64763;48.928;8.474;2023-07-28T06:37:03;3.20;;;2.00;;
76065;SDS011;64763;48.928;8.474;2023-07-28T06:39:28;2.88;;;1.98;;
76065;SDS011;64763;48.928;8.474;2023-07-28T06:41:55;3.20;;;2.17;;
76065;SDS011;64763;48.928;8.474;2023-07-28T06:44:20;3.80;;;2.43;;
76065;SDS011;64763;48.928;8.474;2023-07-28T06:46:45;3.27;;;1.90;;
76065;SDS011;64763;48.928;8.474;2023-07-28T06:49:10;4.40;;;2.50;;
76065;SDS011;64763;48.928;8.474;2023-07-28T06:51:35;3.37;;;2.23;;
76065;SDS011;64763;48.928;8.474;2023-07-28T06:54:01;3.80;;;2.30;;
76065;SDS011;64763;48.928;8.474;2023-07-28T06:56:27;5.55;;;2.08;;
76065;SDS011;64763;48.928;8.474;2023-07-28T06:58:52;4.27;;;1.93;;
76065;SDS011;64763;48.928;8.474;2023-07-28T07:01:17;2.97;;;1.70;;
76065;SDS011;64763;48.928;8.474;2023-07-28T07:03:43;3.70;;;1.65;;
76065;SDS011;64763;48.928;8.474;2023-07-28T07:06:08;2.83;;;1.45;;
76065;SDS011;64763;48.928;8.474;2023-07-28T07:08:33;2.00;;;1.30;;
76065;SDS011;64763;48.928;8.474;2023-07-28T07:10:58;1.77;;;1.10;;
76065;SDS011;64763;48.928;8.474;2023-07-28T07:13:24;2.88;;;1.70;;
76065;SDS011;64763;48.928;8.474;2023-07-28T07:15:49;2.87;;;1.70;;
76065;SDS011;64763;48.928;8.474;2023-07-28T07:18:14;3.10;;;1.73;;
76065;SDS011;64763;48.928;8.474;2023-07-28T07:20:40;2.40;;;1.50;;
76065;SDS011;64763;48.928;8.474;2023-07-28T07:23:05;2.30;;;1.45;;
76065;SDS011;64763;48.928;8.474;2023-07-28T07:25:30;3.70;;;1.50;;
76065;SDS011;64763;48.928;8.474;2023-07-28T07:27:55;2.73;;;1.70;;
76065;SDS011;64763;48.928;8.474;2023-07-28T07:30:21;2.80;;;1.60;;
76065;SDS011;64763;48.928;8.474;2023-07-28T07:32:46;2.30;;;1.63;;
76065;SDS011;64763;48.928;8.474;2023-07-28T07:35:11;2.70;;;1.77;;
76065;SDS011;64763;48.928;8.474;2023-07-28T07:37:37;3.85;;;2.03;;
76065;SDS011;64763;48.928;8.474;2023-07-28T07:40:03;2.95;;;2.00;;
76065;SDS011;64763;48.928;8.474;2023-07-28T07:42:28;4.00;;;2.08;;
76065;SDS011;64763;48.928;8.474;2023-07-28T07:45:04;2.80;;;1.92;;
76065;SDS011;64763;48.928;8.474;2023-07-28T07:47:30;3.63;;;2.30;;
76065;SDS011;64763;48.928;8.474;2023-07-28T07:49:55;4.57;;;2.50;;
76065;SDS011;64763;48.928;8.474;2023-07-28T07:52:20;3.37;;;2.10;;
76065;SDS011;64763;48.928;8.474;2023-07-28T07:54:45;4.83;;;2.60;;
76065;SDS011;64763;48.928;8.474;2023-07-28T07:57:10;3.47;;;2.17;;
76065;SDS011;64763;48.928;8.474;2023-07-28T07:59:36;3.27;;;2.20;;
76065;SDS011;64763;48.928;8.474;2023-07-28T08:02:01;3.70;;;2.33;;
76065;SDS011;64763;48.928;8.474;2023-07-28T08:04:27;3.90;;;2.45;;
76065;SDS011;64763;48.928;8.474;2023-07-28T08:06:53;5.82;;;2.22;;
76065;SDS011;64763;48.928;8.474;2023-07-28T08:09:18;3.50;;;2.65;;
76065;SDS011;64763;48.928;8.474;2023-07-28T08:11:43;4.07;;;2.57;;
76065;SDS011;64763;48.928;8.474;2023-07-28T08:14:08;4.43;;;2.70;;
76065;SDS011;64763;48.928;8.474;2023-07-28T08:16:34;4.43;;;3.10;;
76065;SDS011;64763;48.928;8.474;2023-07-28T08:18:59;4.50;;;2.67;;
76065;SDS011;64763;48.928;8.474;2023-07-28T08:21:24;3.60;;;2.50;;
76065;SDS011;64763;48.928;8.474;2023-07-28T08:23:49;3.80;;;2.50;;
76065;SDS011;64763;48.928;8.474;2023-07-28T08:26:17;6.50;;;2.60;;
76065;SDS011;64763;48.928;8.474;2023-07-28T08:28:43;3.45;;;2.60;;
76065;SDS011;64763;48.928;8.474;2023-07-28T08:31:08;3.50;;;2.47;;
76065;SDS011;64763;48.928;8.474;2023-07-28T08:33:33;3.42;;;2.38;;
76065;SDS011;64763;48.928;8.474;2023-07-28T08:35:58;7.03;;;2.50;;
76065;SDS011;64763;48.928;8.474;2023-07-28T08:38:24;3.70;;;2.40;;
76065;SDS011;64763;48.928;8.474;2023-07-28T08:40:49;3.83;;;2.57;;
76065;SDS011;64763;48.928;8.474;2023-07-28T08:43:14;4.20;;;2.53;;
76065;SDS011;64763;48.928;8.474;2023-07-28T08:45:39;6.13;;;2.70;;
76065;SDS011;64763;48.928;8.474;2023-07-28T08:48:05;3.60;;;2.33;;
76065;SDS011;64763;48.928;8.474;2023-07-28T08:50:30;4.03;;;2.65;;
76065;SDS011;64763;48.928;8.474;2023-07-28T08:52:58;4.47;;;2.67;;
76065;SDS011;64763;48.928;8.474;2023-07-28T08:55:24;3.63;;;2.40;;
76065;SDS011;64763;48.928;8.474;2023-07-28T08:57:49;3.57;;;2.23;;
76065;SDS011;64763;48.928;8.474;2023-07-28T09:00:15;3.27;;;2.30;;
76065;SDS011;64763;48.928;8.474;2023-07-28T09:02:42;4.18;;;2.30;;
76065;SDS011;64763;48.928;8.474;2023-07-28T09:05:08;7.73;;;2.80;;
76065;SDS011;64763;48.928;8.474;2023-07-28T09:07:42;3.83;;;2.50;;
76065;SDS011;64763;48.928;8.474;2023-07-28T09:10:07;3.17;;;2.22;;
76065;SDS011;64763;48.928;8.474;2023-07-28T09:12:33;3.88;;;2.45;;
76065;SDS011;64763;48.928;8.474;2023-07-28T09:14:58;3.77;;;2.33;;
76065;SDS011;64763;48.928;8.474;2023-07-28T09:17:23;5.23;;;2.50;;
76065;SDS011;64763;48.928;8.474;2023-07-28T09:19:52;6.67;;;2.87;;
76065;SDS011;64763;48.928;8.474;2023-07-28T09:22:18;3.42;;;2.25;;
76065;SDS011;64763;48.928;8.474;2023-07-28T09:24:44;4.50;;;2.40;;
76065;SDS011;64763;48.928;8.474;2023-07-28T09:27:12;3.80;;;2.33;;
76065;SDS011;64763;48.928;8.474;2023-07-28T09:29:43;4.82;;;2.60;;
76065;SDS011;64763;48.928;8.474;2023-07-28T09:32:12;4.10;;;2.55;;
76065;SDS011;64763;48.928;8.474;2023-07-28T09:34:38;4.22;;;2.80;;
76065;SDS011;64763;48.928;8.474;2023-07-28T09:37:04;4.40;;;2.80;;
76065;SDS011;64763;48.928;8.474;2023-07-28T09:39:30;4.45;;;2.72;;
76065;SDS011;64763;48.928;8.474;2023-07-28T09:41:56;4.10;;;2.80;;
76065;SDS011;64763;48.928;8.474;2023-07-28T09:44:23;4.05;;;2.30;;
76065;SDS011;64763;48.928;8.474;2023-07-28T09:46:50;7.55;;;2.92;;
76065;SDS011;64763;48.928;8.474;2023-07-28T09:49:16;4.57;;;2.65;;
76065;SDS011;64763;48.928;8.474;2023-07-28T09:51:42;3.58;;;2.40;;
76065;SDS011;64763;48.928;8.474;2023-07-28T09:54:16;4.20;;;2.53;;
76065;SDS011;64763;48.928;8.474;2023-07-28T09:56:43;4.07;;;2.70;;
76065;SDS011;64763;48.928;8.474;2023-07-28T09:59:13;8.55;;;3.00;;
76065;SDS011;64763;48.928;8.474;2023-07-28T10:04:07;5.18;;;2.47;;
76065;SDS011;64763;48.928;8.474;2023-07-28T10:06:32;4.15;;;2.33;;
76065;SDS011;64763;48.928;8.474;2023-07-28T10:08:58;4.38;;;2.40;;
76065;SDS011;64763;48.928;8.474;2023-07-28T10:11:24;4.45;;;2.15;;
76065;SDS011;64763;48.928;8.474;2023-07-28T10:13:50;3.90;;;2.43;;
76065;SDS011;64763;48.928;8.474;2023-07-28T10:16:16;4.22;;;2.05;;
76065;SDS011;64763;48.928;8.474;2023-07-28T10:18:41;4.30;;;2.30;;
76065;SDS011;64763;48.928;8.474;2023-07-28T10:21:08;3.47;;;2.33;;
76065;SDS011;64763;48.928;8.474;2023-07-28T10:23:35;4.63;;;2.50;;
76065;SDS011;64763;48.928;8.474;2023-07-28T10:26:02;5.15;;;2.92;;
76065;SDS011;64763;48.928;8.474;2023-07-28T10:28:33;5.53;;;3.05;;
76065;SDS011;64763;48.928;8.474;2023-07-28T10:31:02;4.20;;;2.20;;
76065;SDS011;64763;48.928;8.474;2023-07-28T10:38:38;4.80;;;2.28;;
76065;SDS011;64763;48.928;8.474;2023-07-28T10:41:05;5.35;;;2.92;;
76065;SDS011;64763;48.928;8.474;2023-07-28T10:43:30;3.60;;;2.20;;
76065;SDS011;64763;48.928;8.474;2023-07-28T10:45:55;3.33;;;2.30;;
76065;SDS011;64763;48.928;8.474;2023-07-28T10:48:21;4.65;;;2.20;;
76065;SDS011;64763;48.928;8.474;2023-07-28T10:50:49;4.22;;;2.40;;
76065;SDS011;64763;48.928;8.474;2023-07-28T10:53:15;3.85;;;2.50;;
76065;SDS011;64763;48.928;8.474;2023-07-28T10:55:40;3.97;;;2.50;;
76065;SDS011;64763;48.928;8.474;2023-07-28T10:58:05;3.33;;;2.17;;
76065;SDS011;64763;48.928;8.474;2023-07-28T11:00:31;4.00;;;2.63;;
76065;SDS011;64763;48.928;8.474;2023-07-28T11:02:56;3.65;;;2.20;;
76065;SDS011;64763;48.928;8.474;2023-07-28T11:05:23;5.70;;;2.30;;
76065;SDS011;64763;48.928;8.474;2023-07-28T11:07:49;4.57;;;2.53;;
76065;SDS011;64763;48.928;8.474;2023-07-28T11:10:15;3.60;;;2.10;;
76065;SDS011;64763;48.928;8.474;2023-07-28T11:12:43;3.75;;;2.50;;
76065;SDS011;64763;48.928;8.474;2023-07-28T11:15:09;5.10;;;2.10;;
76065;SDS011;64763;48.928;8.474;2023-07-28T11:17:36;3.83;;;2.53;;
76065;SDS011;64763;48.928;8.474;2023-07-28T11:20:02;3.22;;;2.10;;
76065;SDS011;64763;48.928;8.474;2023-07-28T11:22:28;3.92;;;2.20;;
76065;SDS011;64763;48.928;8.474;2023-07-28T11:24:53;3.60;;;2.37;;
76065;SDS011;64763;48.928;8.474;2023-07-28T11:27:18;4.43;;;2.37;;
76065;SDS011;64763;48.928;8.474;2023-07-28T11:29:44;4.27;;;2.50;;
76065;SDS011;64763;48.928;8.474;2023-07-28T11:32:09;4.30;;;2.40;;
76065;SDS011;64763;48.928;8.474;2023-07-28T11:34:37;4.03;;;2.40;;
76065;SDS011;64763;48.928;8.474;2023-07-28T11:37:03;4.70;;;3.05;;
76065;SDS011;64763;48.928;8.474;2023-07-28T11:39:30;6.93;;;3.00;;
76065;SDS011;64763;48.928;8.474;2023-07-28T11:41:56;4.70;;;2.55;;
76065;SDS011;64763;48.928;8.474;2023-07-28T11:44:21;5.55;;;2.67;;
76065;SDS011;64763;48.928;8.474;2023-07-28T11:46:49;4.72;;;3.13;;
76065;SDS011;64763;48.928;8.474;2023-07-28T11:49:18;5.80;;;2.50;;
76065;SDS011;64763;48.928;8.474;2023-07-28T11:51:48;5.60;;;3.33;;
76065;SDS011;64763;48.928;8.474;2023-07-28T11:54:14;4.53;;;2.92;;
76065;SDS011;64763;48.928;8.474;2023-07-28T11:56:40;4.25;;;3.10;;
76065;SDS011;64763;48.928;8.474;2023-07-28T11:59:05;4.65;;;2.72;;
76065;SDS011;64763;48.928;8.474;2023-07-28T12:01:31;3.75;;;2.63;;
76065;SDS011;64763;48.928;8.474;2023-07-28T12:03:56;3.65;;;2.30;;
76065;SDS011;64763;48.928;8.474;2023-07-28T12:06:21;6.15;;;2.50;;
76065;SDS011;64763;48.928;8.474;2023-07-28T12:08:46;3.40;;;2.40;;
76065;SDS011;64763;48.928;8.474;2023-07-28T12:11:13;4.63;;;2.72;;
76065;SDS011;64763;48.928;8.474;2023-07-28T12:13:48;3.38;;;2.10;;
76065;SDS011;64763;48.928;8.474;2023-07-28T12:18:58;4.40;;;2.67;;
76065;SDS011;64763;48.928;8.474;2023-07-28T12:21:23;5.30;;;3.00;;
76065;SDS011;64763;48.928;8.474;2023-07-28T12:23:48;5.60;;;2.73;;
76065;SDS011;64763;48.928;8.474;2023-07-28T12:26:14;4.90;;;2.60;;
76065;SDS011;64763;48.928;8.474;2023-07-28T12:28:39;4.33;;;2.67;;
76065;SDS011;64763;48.928;8.474;2023-07-28T12:31:04;4.00;;;2.60;;
76065;SDS011;64763;48.928;8.474;2023-07-28T12:33:29;4.55;;;2.92;;
76065;SDS011;64763;48.928;8.474;2023-07-28T12:35:55;6.63;;;3.10;;
76065;SDS011;64763;48.928;8.474;2023-07-28T12:38:20;4.57;;;2.97;;
76065;SDS011;64763;48.928;8.474;2023-07-28T12:40:45;4.27;;;2.90;;
76065;SDS011;64763;48.928;8.474;2023-07-28T12:43:10;4.47;;;3.03;;
76065;SDS011;64763;48.928;8.474;2023-07-28T12:45:35;4.40;;;2.80;;
76065;SDS011;64763;48.928;8.474;2023-07-28T12:48:01;4.07;;;2.67;;
76065;SDS011;64763;48.928;8.474;2023-07-28T12:50:27;5.05;;;3.00;;
76065;SDS011;64763;48.928;8.474;2023-07-28T12:52:52;4.20;;;2.77;;
76065;SDS011;64763;48.928;8.474;2023-07-28T12:55:17;5.72;;;3.45;;
76065;SDS011;64763;48.928;8.474;2023-07-28T12:57:43;4.40;;;3.33;;
76065;SDS011;64763;48.928;8.474;2023-07-28T13:00:09;4.82;;;3.25;;
76065;SDS011;64763;48.928;8.474;2023-07-28T13:02:44;4.80;;;3.42;;
76065;SDS011;64763;48.928;8.474;2023-07-28T13:05:09;5.10;;;3.20;;
76065;SDS011;64763;48.928;8.474;2023-07-28T13:07:38;6.60;;;3.40;;
76065;SDS011;64763;48.928;8.474;2023-07-28T13:10:03;4.93;;;3.00;;
76065;SDS011;64763;48.928;8.474;2023-07-28T13:12:29;5.82;;;3.50;;
76065;SDS011;64763;48.928;8.474;2023-07-28T13:14:54;4.05;;;2.72;;
76065;SDS011;64763;48.928;8.474;2023-07-28T13:17:20;5.83;;;3.37;;
76065;SDS011;64763;48.928;8.474;2023-07-28T13:19:45;4.80;;;3.17;;
76065;SDS011;64763;48.928;8.474;2023-07-28T13:22:10;4.70;;;3.23;;
76065;SDS011;64763;48.928;8.474;2023-07-28T13:24:35;5.43;;;3.10;;
76065;SDS011;64763;48.928;8.474;2023-07-28T13:27:01;8.20;;;3.70;;
76065;SDS011;64763;48.928;8.474;2023-07-28T13:29:26;4.93;;;3.20;;
76065;SDS011;64763;48.928;8.474;2023-07-28T13:31:51;4.70;;;2.83;;
76065;SDS011;64763;48.928;8.474;2023-07-28T13:34:16;5.53;;;3.47;;
76065;SDS011;64763;48.928;8.474;2023-07-28T13:36:42;4.70;;;3.40;;
76065;SDS011;64763;48.928;8.474;2023-07-28T13:39:08;5.47;;;3.38;;
76065;SDS011;64763;48.928;8.474;2023-07-28T13:41:34;5.85;;;3.80;;
76065;SDS011;64763;48.928;8.474;2023-07-28T13:43:59;6.67;;;4.13;;
76065;SDS011;64763;48.928;8.474;2023-07-28T13:46:24;5.63;;;3.40;;
76065;SDS011;64763;48.928;8.474;2023-07-28T13:48:49;6.23;;;4.00;;
76065;SDS011;64763;48.928;8.474;2023-07-28T13:51:14;4.80;;;3.00;;
76065;SDS011;64763;48.928;8.474;2023-07-28T13:53:40;5.20;;;3.50;;
76065;SDS011;64763;48.928;8.474;2023-07-28T13:56:05;5.33;;;3.70;;
76065;SDS011;64763;48.928;8.474;2023-07-28T13:58:30;10.20;;;3.85;;
76065;SDS011;64763;48.928;8.474;2023-07-28T14:00:55;5.07;;;3.20;;
76065;SDS011;64763;48.928;8.474;2023-07-28T14:03:20;4.63;;;3.20;;
76065;SDS011;64763;48.928;8.474;2023-07-28T14:05:46;6.50;;;3.50;;
76065;SDS011;64763;48.928;8.474;2023-07-28T14:08:11;4.03;;;3.03;;
76065;SDS011;64763;48.928;8.474;2023-07-28T14:10:36;4.60;;;3.20;;
76065;SDS011;64763;48.928;8.474;2023-07-28T14:13:03;6.35;;;3.33;;
76065;SDS011;64763;48.928;8.474;2023-07-28T14:15:28;4.40;;;2.90;;
76065;SDS011;64763;48.928;8.474;2023-07-28T14:17:53;4.70;;;2.83;;
76065;SDS011;64763;48.928;8.474;2023-07-28T14:20:19;4.70;;;3.17;;
76065;SDS011;64763;48.928;8.474;2023-07-28T14:22:44;4.80;;;3.13;;
76065;SDS011;64763;48.928;8.474;2023-07-28T14:25:09;4.87;;;3.17;;
76065;SDS011;64763;48.928;8.474;2023-07-28T14:27:34;5.87;;;3.30;;
76065;SDS011;64763;48.928;8.474;2023-07-28T14:29:59;4.37;;;3.33;;
76065;SDS011;64763;48.928;8.474;2023-07-28T14:32:25;5.50;;;3.33;;
76065;SDS011;64763;48.928;8.474;2023-07-28T14:34:50;4.40;;;3.00;;
76065;SDS011;64763;48.928;8.474;2023-07-28T14:37:15;5.77;;;3.50;;
76065;SDS011;64763;48.928;8.474;2023-07-28T14:39:41;4.13;;;2.72;;
76065;SDS011;64763;48.928;8.474;2023-07-28T14:42:06;4.85;;;2.80;;
76065;SDS011;64763;48.928;8.474;2023-07-28T14:44:32;4.77;;;3.00;;
76065;SDS011;64763;48.928;8.474;2023-07-28T14:46:57;4.83;;;3.20;;
76065;SDS011;64763;48.928;8.474;2023-07-28T14:49:22;3.70;;;2.47;;